Time;durP1;ratioP1;P1;durP2;ratioP2;P2;SDS_P1;SDS_P2;PMS_P1;PMS_P2;Temp;Humidity;BMP_temperature;BMP_pressure;BME280_temperature;BME280_humidity;BME280_pressure;Samples;Min_cycle;Max_cycle;Signal;HPM_P1;HPM_P2
2023/03/28 00:01:24;;;;;;;;;;;;;;;12.17;53.13;102495.25;4988825;28;19918;-51
2023/03/28 00:03:51;;;;;;;;;;;;;;;12.27;52.82;102494.28;4989143;28;19984;-50
2023/03/28 00:06:17;;;;;;;;;;;;;;;12.11;53.46;102495.06;4989432;28;19918;-52
2023/03/28 00:08:44;;;;;;;;;;;;;;;12.13;53.46;102496.59;4990964;28;19910;-49
2023/03/28 00:11:28;;;;;;;;;;;;;;;12.25;53.69;102493.59;4987311;28;20412;-49
2023/03/28 00:14:02;;;;;;;;;;;;;;;12.27;53.31;102488.91;4992168;28;19920;-50
2023/03/28 00:16:30;;;;;;;;;;;;;;;12.38;53.27;102491.25;4991750;28;19914;-47
2023/03/28 00:18:59;;;;;;;;;;;;;;;12.31;53.24;102488.38;4984671;28;19921;-50
2023/03/28 00:21:29;;;;;;;;;;;;;;;12.31;52.95;102491.06;4984057;28;19937;-49
2023/03/28 00:23:56;;;;;;;;;;;;;;;12.05;54.17;102497.41;4989847;28;19920;-52
2023/03/28 00:26:26;;;;;;;;;;;;;;;12.23;53.56;102501.81;4980354;28;19914;-49
2023/03/28 00:28:52;;;;;;;;;;;;;;;13.30;51.10;102503.56;4987163;28;19922;-49
2023/03/28 00:31:17;;;;;;;;;;;;;;;14.02;49.82;102507.13;4988924;28;19918;-49
2023/03/28 00:33:46;;;;;;;;;;;;;;;12.42;52.56;102495.28;4988160;28;19921;-49
2023/03/28 00:36:21;;;;;;;;;;;;;;;14.04;49.79;102499.72;4985965;28;19967;-49
2023/03/28 00:38:48;;;;;;;;;;;;;;;15.52;46.86;102501.22;4989508;28;19921;-52
2023/03/28 00:41:14;;;;;;;;;;;;;;;14.57;47.44;102501.69;4987832;28;19940;-50
2023/03/28 00:43:41;;;;;;;;;;;;;;;12.60;51.85;102496.97;4989777;28;19921;-50
2023/03/28 00:46:09;;;;;;;;;;;;;;;12.66;51.85;102500.81;4987022;28;19929;-51
2023/03/28 00:48:35;;;;;;;;;;;;;;;12.30;52.45;102499.31;4997490;28;19916;-48
2023/03/28 00:51:03;;;;;;;;;;;;;;;11.97;53.80;102491.16;4990419;28;19922;-50
2023/03/28 00:53:30;;;;;;;;;;;;;;;12.33;52.90;102496.28;4989139;28;19954;-49
2023/03/28 00:56:07;;;;;;;;;;;;;;;12.23;52.71;102496.44;4985676;28;19968;-48
2023/03/28 00:58:36;;;;;;;;;;;;;;;12.82;51.87;102505.34;4992765;28;19914;-49
2023/03/28 01:01:02;;;;;;;;;;;;;;;13.05;51.79;102500.09;4964559;28;19959;-48
2023/03/28 01:03:32;;;;;;;;;;;;;;;12.30;52.54;102497.44;5003354;28;19913;-49
2023/03/28 01:06:00;;;;;;;;;;;;;;;12.25;52.58;102498.97;5012188;28;19946;-50
2023/03/28 01:08:36;;;;;;;;;;;;;;;11.37;54.73;102490.28;4975996;28;19914;-51
2023/03/28 01:11:02;;;;;;;;;;;;;;;11.32;54.93;102493.44;4987418;28;19989;-51
2023/03/28 01:13:33;;;;;;;;;;;;;;;11.68;54.69;102493.28;4992644;28;19914;-49
2023/03/28 01:16:01;;;;;;;;;;;;;;;11.74;54.46;102491.75;4987309;28;19985;-50
2023/03/28 01:18:29;;;;;;;;;;;;;;;11.56;54.84;102491.88;4993693;28;19965;-49
2023/03/28 01:21:01;;;;;;;;;;;;;;;11.62;55.40;102488.53;5000447;28;19940;-51
2023/03/28 01:23:26;;;;;;;;;;;;;;;11.42;56.33;102488.81;4984777;28;19922;-52
2023/03/28 01:26:10;;;;;;;;;;;;;;;11.27;57.53;102479.69;5018025;28;19928;-47
2023/03/28 01:28:55;;;;;;;;;;;;;;;11.73;56.52;102482.91;4986672;28;20258;-49
2023/03/28 01:31:30;;;;;;;;;;;;;;;11.52;56.88;102477.13;5014816;28;19914;-51
2023/03/28 01:34:20;;;;;;;;;;;;;;;11.55;56.94;102472.28;4992428;28;19935;-51
2023/03/28 01:36:58;;;;;;;;;;;;;;;11.19;58.78;102473.31;4987678;28;19922;-50
2023/03/28 01:39:39;;;;;;;;;;;;;;;11.75;57.46;102472.00;5047652;28;19971;-47
2023/03/28 01:42:27;;;;;;;;;;;;;;;11.44;58.91;102465.38;5052772;28;19931;-47
2023/03/28 01:45:06;;;;;;;;;;;;;;;11.81;57.55;102471.38;5038490;28;19921;-50
2023/03/28 01:47:38;;;;;;;;;;;;;;;11.68;57.88;102471.84;5058817;28;19916;-49
2023/03/28 01:50:10;;;;;;;;;;;;;;;11.72;58.04;102472.31;5051991;28;19912;-50
2023/03/28 01:52:43;;;;;;;;;;;;;;;11.44;59.09;102465.38;5053707;28;19913;-49
2023/03/28 01:55:29;;;;;;;;;;;;;;;11.22;60.29;102458.75;5045626;28;20004;-52
2023/03/28 01:58:05;;;;;;;;;;;;;;;11.28;60.42;102462.63;5046183;28;20415;-46
2023/03/28 02:00:43;;;;;;;;;;;;;;;11.05;60.32;102458.66;5049595;28;20003;-49
2023/03/28 02:03:17;;;;;;;;;;;;;;;10.99;61.79;102456.59;5051288;28;19925;-52
2023/03/28 02:06:06;;;;;;;;;;;;;;;11.32;60.89;102458.63;5056687;28;19947;-51
2023/03/28 02:08:32;;;;;;;;;;;;;;;11.00;62.17;102458.28;5046681;28;19920;-51
2023/03/28 02:11:17;;;;;;;;;;;;;;;10.82;62.89;102469.06;5053521;28;19917;-54
2023/03/28 02:14:00;;;;;;;;;;;;;;;10.78;64.43;102466.84;5063937;28;20391;-49
2023/03/28 02:16:48;;;;;;;;;;;;;;;10.67;64.66;102463.44;5054854;28;19924;-49
2023/03/28 02:19:34;;;;;;;;;;;;;;;10.99;64.26;102461.97;5055977;28;19920;-48
2023/03/28 02:22:21;;;;;;;;;;;;;;;10.84;65.23;102463.53;5057739;28;19936;-47
2023/03/28 02:24:56;;;;;;;;;;;;;;;10.84;66.19;102461.72;5052606;28;20110;-49
2023/03/28 02:27:38;;;;;;;;;;;;;;;10.68;66.19;102461.59;5049270;28;19925;-48
2023/03/28 02:30:34;;;;;;;;;;;;;;;10.99;65.26;102459.28;5064584;28;20372;-47
2023/03/28 02:33:01;;;;;;;;;;;;;;;11.19;64.10;102459.06;5060553;28;19913;-51
2023/03/28 02:35:45;;;;;;;;;;;;;;;10.91;65.26;102461.94;5057428;28;19916;-50
2023/03/28 02:38:21;;;;;;;;;;;;;;;10.85;65.92;102460.72;5059467;28;19967;-49
2023/03/28 02:40:52;;;;;;;;;;;;;;;10.57;66.79;102455.50;5059301;28;19916;-49
2023/03/28 02:43:17;;;;;;;;;;;;;;;10.45;67.32;102457.59;5064038;28;19917;-52
2023/03/28 02:46:02;;;;;;;;;;;;;;;11.09;65.25;102458.34;5059138;28;19939;-49
2023/03/28 02:48:52;;;;;;;;;;;;;;;11.22;63.72;102471.31;5059021;28;19916;-51
2023/03/28 02:51:39;;;;;;;;;;;;;;;11.38;61.63;102467.88;5061196;28;20026;-50
2023/03/28 02:54:27;;;;;;;;;;;;;;;11.11;63.58;102464.38;5060963;28;19917;-52
2023/03/28 02:57:35;;;;;;;;;;;;;;;11.07;64.59;102465.69;5041506;28;20412;-50
2023/03/28 03:00:15;;;;;;;;;;;;;;;10.94;64.57;102463.44;5053394;28;19937;-51
2023/03/28 03:02:43;;;;;;;;;;;;;;;10.65;65.92;102465.44;5059469;28;19921;-50
2023/03/28 03:05:08;;;;;;;;;;;;;;;10.89;65.49;102462.06;5048645;28;19913;-52
2023/03/28 03:07:35;;;;;;;;;;;;;;;11.06;65.00;102462.19;5049043;28;19920;-49
2023/03/28 03:10:01;;;;;;;;;;;;;;;10.95;64.37;102460.59;5047073;28;19989;-50
2023/03/28 03:12:29;;;;;;;;;;;;;;;11.22;63.68;102461.41;5067920;28;19913;-49
2023/03/28 03:14:59;;;;;;;;;;;;;;;10.40;66.55;102457.22;5059458;28;19936;-50
2023/03/28 03:17:45;;;;;;;;;;;;;;;10.46;67.83;102448.56;5060427;28;19928;-52
2023/03/28 03:20:12;;;;;;;;;;;;;;;10.49;66.73;102450.06;5055461;28;19917;-50
2023/03/28 03:22:38;;;;;;;;;;;;;;;10.49;67.34;102450.06;5051217;28;19927;-50
2023/03/28 03:25:06;;;;;;;;;;;;;;;10.06;68.02;102455.19;5050915;28;19927;-49
2023/03/28 03:27:42;;;;;;;;;;;;;;;10.17;69.12;102454.13;5051619;28;19940;-50
2023/03/28 03:30:10;;;;;;;;;;;;;;;10.35;68.24;102451.44;5059344;28;19909;-49
2023/03/28 03:32:55;;;;;;;;;;;;;;;10.69;64.83;102455.25;5054058;28;19920;-53
2023/03/28 03:35:24;;;;;;;;;;;;;;;10.66;65.91;102459.09;5050972;28;20081;-52
2023/03/28 03:37:49;;;;;;;;;;;;;;;10.58;66.08;102462.53;5044272;28;19921;-50
2023/03/28 03:40:16;;;;;;;;;;;;;;;10.57;66.00;102451.97;4985083;28;19929;-49
2023/03/28 03:42:43;;;;;;;;;;;;;;;10.54;66.35;102452.28;4998186;28;19914;-49
2023/03/28 03:45:10;;;;;;;;;;;;;;;9.68;69.67;102449.09;4995980;28;19969;-51
2023/03/28 03:47:40;;;;;;;;;;;;;;;10.42;66.89;102449.88;4986184;28;19973;-48
2023/03/28 03:50:07;;;;;;;;;;;;;;;9.99;68.16;102454.13;4974768;28;19914;-49
2023/03/28 03:52:32;;;;;;;;;;;;;;;10.03;68.95;102450.16;4984923;28;19967;-48
2023/03/28 03:54:58;;;;;;;;;;;;;;;9.87;68.55;102443.66;4988452;28;19918;-47
2023/03/28 03:57:24;;;;;;;;;;;;;;;10.08;67.74;102450.53;5005419;28;19914;-54
2023/03/28 03:59:56;;;;;;;;;;;;;;;9.43;71.24;102448.81;5002862;28;19914;-51
2023/03/28 04:02:23;;;;;;;;;;;;;;;10.16;69.01;102450.63;5001774;28;19918;-51
2023/03/28 04:04:58;;;;;;;;;;;;;;;10.30;67.26;102451.91;4987153;28;19914;-49
2023/03/28 04:07:33;;;;;;;;;;;;;;;10.04;68.94;102446.50;4983544;28;19948;-50
2023/03/28 04:10:00;;;;;;;;;;;;;;;10.15;67.90;102456.97;4972700;28;20014;-51
2023/03/28 04:12:29;;;;;;;;;;;;;;;10.07;68.67;102459.53;4993145;28;19949;-51
2023/03/28 04:14:55;;;;;;;;;;;;;;;12.07;60.64;102453.50;4994229;28;19918;-49
2023/03/28 04:17:35;;;;;;;;;;;;;;;10.29;65.92;102450.25;4985470;28;19923;-52
2023/03/28 04:20:10;;;;;;;;;;;;;;;9.50;71.23;102455.28;4970426;28;19946;-52
2023/03/28 04:22:41;;;;;;;;;;;;;;;10.19;69.09;102455.66;4971943;28;19948;-49
2023/03/28 04:25:12;;;;;;;;;;;;;;;10.74;65.46;102453.78;4988054;28;19924;-51
2023/03/28 04:27:38;;;;;;;;;;;;;;;10.55;64.97;102448.63;5007404;28;19939;-50
2023/03/28 04:30:04;;;;;;;;;;;;;;;10.31;65.92;102452.75;4992395;28;19977;-50
2023/03/28 04:32:53;;;;;;;;;;;;;;;10.29;66.12;102444.91;4986661;28;19914;-49
2023/03/28 04:35:24;;;;;;;;;;;;;;;9.99;66.94;102454.13;4988004;28;19985;-51
2023/03/28 04:37:52;;;;;;;;;;;;;;;10.58;64.62;102450.97;5010819;28;19925;-49
2023/03/28 04:40:20;;;;;;;;;;;;;;;10.28;65.83;102442.34;4998067;28;19925;-48
2023/03/28 04:42:50;;;;;;;;;;;;;;;9.71;67.06;102448.84;4987783;28;19921;-52
2023/03/28 04:45:25;;;;;;;;;;;;;;;9.98;66.42;102444.44;4979609;28;19919;-51
2023/03/28 04:47:52;;;;;;;;;;;;;;;9.75;67.93;102442.19;4975342;28;19954;-48
2023/03/28 04:50:19;;;;;;;;;;;;;;;9.61;69.06;102444.38;5004810;28;19922;-51
2023/03/28 04:52:45;;;;;;;;;;;;;;;10.06;67.28;102449.03;4998906;28;19952;-56
2023/03/28 04:55:12;;;;;;;;;;;;;;;10.23;64.86;102444.66;5002810;28;19922;-48
2023/03/28 04:57:38;;;;;;;;;;;;;;;10.18;65.97;102450.47;4991832;28;19940;-48
2023/03/28 05:00:08;;;;;;;;;;;;;;;9.26;69.43;102453.97;4979287;28;20392;-51
2023/03/28 05:02:53;;;;;;;;;;;;;;;9.51;69.85;102456.94;4992420;28;19936;-49
2023/03/28 05:05:20;;;;;;;;;;;;;;;10.06;66.97;102451.69;4977565;28;19920;-48
2023/03/28 05:07:46;;;;;;;;;;;;;;;9.71;68.98;102456.84;4985035;28;19925;-50
2023/03/28 05:10:12;;;;;;;;;;;;;;;10.00;67.24;102456.63;4995608;28;19914;-48
2023/03/28 05:12:39;;;;;;;;;;;;;;;9.72;66.64;102458.53;4982253;28;19956;-53
2023/03/28 05:15:05;;;;;;;;;;;;;;;9.47;69.19;102469.75;4990747;28;19918;-49
2023/03/28 05:17:36;;;;;;;;;;;;;;;10.24;65.16;102463.22;4994585;28;19914;-48
2023/03/28 05:20:09;;;;;;;;;;;;;;;9.96;66.98;102475.81;4985256;28;19914;-48
2023/03/28 05:22:44;;;;;;;;;;;;;;;10.18;66.38;102477.19;4999162;28;19914;-54
2023/03/28 05:25:10;;;;;;;;;;;;;;;9.60;67.92;102480.09;4991834;28;19938;-48
2023/03/28 05:27:37;;;;;;;;;;;;;;;9.10;71.63;102475.94;4997415;28;19953;-48
2023/03/28 05:30:04;;;;;;;;;;;;;;;10.34;66.56;102476.50;4988692;28;19921;-49
2023/03/28 05:32:30;;;;;;;;;;;;;;;9.97;66.25;102474.81;4996471;28;19914;-47
2023/03/28 05:34:56;;;;;;;;;;;;;;;9.13;70.56;102475.66;5013084;28;19920;-47
2023/03/28 05:37:26;;;;;;;;;;;;;;;9.76;68.87;102474.09;5000784;28;19922;-51
2023/03/28 05:39:53;;;;;;;;;;;;;;;9.97;67.37;102482.84;4977851;28;19921;-49
2023/03/28 05:42:18;;;;;;;;;;;;;;;10.23;65.42;102482.09;4984631;28;19918;-54
2023/03/28 05:44:44;;;;;;;;;;;;;;;10.35;65.19;102486.19;4996139;28;19929;-49
2023/03/28 05:47:28;;;;;;;;;;;;;;;10.61;64.28;102483.63;4990633;28;19974;-48
2023/03/28 05:49:55;;;;;;;;;;;;;;;10.69;63.47;102488.19;4993980;28;19913;-49
2023/03/28 05:52:21;;;;;;;;;;;;;;;10.24;65.39;102483.78;4990764;28;19914;-53
2023/03/28 05:54:46;;;;;;;;;;;;;;;10.58;64.26;102485.75;4995442;28;19945;-50
2023/03/28 05:57:15;;;;;;;;;;;;;;;10.66;64.51;102487.66;5002909;28;19914;-55
2023/03/28 05:59:41;;;;;;;;;;;;;;;10.60;64.01;102489.13;4991137;28;19920;-50
2023/03/28 06:02:12;;;;;;;;;;;;;;;10.57;64.83;102484.06;5003452;28;19958;-49
2023/03/28 06:04:38;;;;;;;;;;;;;;;10.93;61.54;102489.38;5001786;28;19918;-48
2023/03/28 06:07:08;;;;;;;;;;;;;;;9.92;67.19;102490.44;4977105;28;19964;-53
2023/03/28 06:09:34;;;;;;;;;;;;;;;10.13;67.62;102485.66;5008705;28;19946;-52
2023/03/28 06:12:02;;;;;;;;;;;;;;;9.97;69.06;102490.88;4993274;28;20428;-54
2023/03/28 06:14:28;;;;;;;;;;;;;;;10.07;68.10;102477.44;4991656;28;19914;-55
2023/03/28 06:16:56;;;;;;;;;;;;;;;10.03;69.68;102479.56;5002046;28;19914;-54
2023/03/28 06:19:22;;;;;;;;;;;;;;;10.40;68.29;102483.97;5010936;28;19937;-50
2023/03/28 06:21:50;;;;;;;;;;;;;;;11.13;65.71;102486.50;4992054;28;19941;-54
2023/03/28 06:24:16;;;;;;;;;;;;;;;10.95;65.67;102489.19;4993624;28;19914;-51
2023/03/28 06:26:42;;;;;;;;;;;;;;;10.87;65.17;102485.47;5011229;28;19914;-52
2023/03/28 06:29:12;;;;;;;;;;;;;;;10.85;65.32;102479.44;5004340;28;19914;-50
2023/03/28 06:31:42;;;;;;;;;;;;;;;11.21;64.73;102478.47;5000703;28;19921;-54
2023/03/28 06:34:07;;;;;;;;;;;;;;;11.26;63.86;102484.19;5030714;28;19975;-52
2023/03/28 06:36:43;;;;;;;;;;;;;;;11.02;64.72;102476.88;4991893;28;20019;-50
2023/03/28 06:39:09;;;;;;;;;;;;;;;11.02;65.42;102490.28;5033756;28;19916;-53
2023/03/28 06:41:35;;;;;;;;;;;;;;;11.29;64.07;102497.25;5060825;28;19905;-50
2023/03/28 06:44:02;;;;;;;;;;;;;;;12.37;60.88;102494.94;5064451;28;19912;-49
2023/03/28 06:46:47;;;;;;;;;;;;;;;11.71;62.19;102498.31;5043072;28;19981;-53
2023/03/28 06:49:14;;;;;;;;;;;;;;;11.86;62.01;102494.97;5065440;28;19931;-54
2023/03/28 06:51:59;;;;;;;;;;;;;;;11.97;61.73;102502.72;5061920;28;20000;-49
2023/03/28 06:54:26;;;;;;;;;;;;;;;11.91;61.56;102500.72;5055914;28;19924;-47
2023/03/28 06:56:52;;;;;;;;;;;;;;;11.80;62.17;102501.00;5057749;28;19913;-51
2023/03/28 06:59:17;;;;;;;;;;;;;;;11.98;61.71;102504.41;5059514;28;19917;-49
2023/03/28 07:01:47;;;;;;;;;;;;;;;11.79;62.50;102500.19;5057762;28;19921;-51
2023/03/28 07:04:14;;;;;;;;;;;;;;;12.08;62.11;102498.09;5059166;28;20015;-56
2023/03/28 07:06:44;;;;;;;;;;;;;;;12.27;60.92;102502.31;5066022;28;19900;-51
2023/03/28 07:09:10;;;;;;;;;;;;;;;12.33;60.66;102507.00;5058542;28;20043;-52
2023/03/28 07:11:39;;;;;;;;;;;;;;;12.08;61.28;102503.44;5058308;28;19913;-50
2023/03/28 07:14:05;;;;;;;;;;;;;;;11.99;61.65;102511.44;5059952;28;21327;-49
2023/03/28 07:16:31;;;;;;;;;;;;;;;12.93;59.43;102513.06;5041482;28;19957;-51
2023/03/28 07:18:56;;;;;;;;;;;;;;;12.59;59.73;102511.38;5055984;28;19913;-48
2023/03/28 07:21:29;;;;;;;;;;;;;;;12.84;58.33;102511.38;5061984;28;19917;-48
2023/03/28 07:23:57;;;;;;;;;;;;;;;12.64;59.21;102514.41;5061518;28;19924;-49
2023/03/28 07:26:27;;;;;;;;;;;;;;;12.32;59.53;102513.38;5057782;28;19968;-48
2023/03/28 07:28:53;;;;;;;;;;;;;;;12.25;60.14;102507.84;5056372;28;19917;-47
2023/03/28 07:31:20;;;;;;;;;;;;;;;12.71;58.73;102510.06;5058838;28;19920;-50
2023/03/28 07:33:47;;;;;;;;;;;;;;;13.58;58.29;102516.56;5056183;28;19912;-49
2023/03/28 07:36:15;;;;;;;;;;;;;;;13.07;58.14;102518.72;5061978;28;19954;-52
2023/03/28 07:38:44;;;;;;;;;;;;;;;12.69;58.41;102514.75;5008392;28;20101;-50
2023/03/28 07:41:10;;;;;;;;;;;;;;;12.41;59.73;102515.06;4969799;28;19919;-50
2023/03/28 07:43:39;;;;;;;;;;;;;;;12.97;57.96;102518.91;4969615;28;19973;-51
2023/03/28 07:46:06;;;;;;;;;;;;;;;13.20;57.68;102524.41;4973099;28;20835;-49
2023/03/28 07:48:33;;;;;;;;;;;;;;;12.99;57.28;102520.44;4970617;28;19915;-51
2023/03/28 07:51:01;;;;;;;;;;;;;;;12.85;57.60;102515.72;4965708;28;20003;-48
2023/03/28 07:53:26;;;;;;;;;;;;;;;13.40;57.06;102526.72;4969943;28;19918;-49
2023/03/28 07:55:53;;;;;;;;;;;;;;;12.88;57.54;102520.75;4970523;28;19918;-52
2023/03/28 07:58:19;;;;;;;;;;;;;;;13.88;56.37;102522.19;4971616;28;19944;-52
2023/03/28 08:00:45;;;;;;;;;;;;;;;14.57;54.71;102517.81;4968317;28;19925;-55
2023/03/28 08:03:29;;;;;;;;;;;;;;;14.10;54.41;102522.38;4972337;28;19937;-52
2023/03/28 08:05:55;;;;;;;;;;;;;;;14.20;54.30;102512.22;4970688;28;19918;-49
2023/03/28 08:08:21;;;;;;;;;;;;;;;14.03;54.57;102518.72;4968513;28;19919;-52
2023/03/28 08:11:02;;;;;;;;;;;;;;;13.59;55.31;102517.44;4969020;28;19914;-50
2023/03/28 08:13:27;;;;;;;;;;;;;;;14.26;53.78;102521.44;4968071;28;19965;-48
2023/03/28 08:15:58;;;;;;;;;;;;;;;14.16;53.84;102523.50;4971483;28;19944;-53
2023/03/28 08:18:25;;;;;;;;;;;;;;;14.51;52.94;102520.41;4966873;28;19969;-53
2023/03/28 08:20:59;;;;;;;;;;;;;;;14.19;53.74;102525.88;4970157;28;19918;-54
2023/03/28 08:23:28;;;;;;;;;;;;;;;14.71;52.55;102518.09;4968432;28;19976;-51
2023/03/28 08:26:22;;;;;;;;;;;;;;;14.70;51.94;102519.91;4971022;28;19925;-52
2023/03/28 08:28:53;;;;;;;;;;;;;;;14.74;52.17;102520.41;4970529;28;19921;-51
2023/03/28 08:31:22;;;;;;;;;;;;;;;14.26;52.48;102515.19;4965573;28;19921;-48
2023/03/28 08:33:51;;;;;;;;;;;;;;;14.87;51.67;102520.63;4970663;28;19914;-52
2023/03/28 08:36:22;;;;;;;;;;;;;;;14.98;50.76;102515.81;4968940;28;19915;-53
2023/03/28 08:38:48;;;;;;;;;;;;;;;14.39;51.38;102528.06;4981063;28;19918;-51
2023/03/28 08:41:33;;;;;;;;;;;;;;;15.25;49.64;102516.19;4986276;28;19925;-54
2023/03/28 08:44:21;;;;;;;;;;;;;;;15.33;49.60;102519.66;4986539;28;19914;-53
2023/03/28 08:46:49;;;;;;;;;;;;;;;15.17;50.17;102507.19;4998690;28;19953;-52
2023/03/28 08:49:16;;;;;;;;;;;;;;;16.19;49.63;102510.13;4989731;28;19921;-54
2023/03/28 08:51:45;;;;;;;;;;;;;;;15.95;50.24;102505.91;5020745;28;19997;-51
2023/03/28 08:54:14;;;;;;;;;;;;;;;16.26;50.49;102514.75;4991947;28;19914;-54
2023/03/28 08:56:48;;;;;;;;;;;;;;;17.02;48.80;102508.72;4988759;28;19914;-53
2023/03/28 08:59:16;;;;;;;;;;;;;;;16.49;48.42;102517.22;4976538;28;19914;-51
2023/03/28 09:01:43;;;;;;;;;;;;;;;16.10;47.18;102518.53;4993313;28;19921;-50
2023/03/28 09:04:20;;;;;;;;;;;;;;;16.48;46.02;102515.56;4979261;28;19914;-52
2023/03/28 09:06:52;;;;;;;;;;;;;;;15.87;44.78;102514.09;4997424;28;19910;-53
2023/03/28 09:09:26;;;;;;;;;;;;;;;15.49;46.14;102512.41;4990386;28;19918;-51
2023/03/28 09:12:16;;;;;;;;;;;;;;;15.68;45.29;102499.31;5005459;28;19918;-50
2023/03/28 09:14:51;;;;;;;;;;;;;;;15.60;45.63;102517.28;4990427;28;19965;-52
2023/03/28 09:17:22;;;;;;;;;;;;;;;15.68;46.16;102504.72;4990453;28;19933;-50
2023/03/28 09:19:55;;;;;;;;;;;;;;;16.67;44.87;102505.13;4999429;28;19914;-50
2023/03/28 09:22:40;;;;;;;;;;;;;;;16.96;44.40;102500.56;4990480;28;19960;-50
2023/03/28 09:25:20;;;;;;;;;;;;;;;17.41;44.05;102505.63;4989480;28;19925;-52
2023/03/28 09:27:55;;;;;;;;;;;;;;;17.17;43.49;102516.72;5012840;28;19929;-52
2023/03/28 09:30:24;;;;;;;;;;;;;;;17.38;42.87;102514.97;4999359;28;19914;-50
2023/03/28 09:32:54;;;;;;;;;;;;;;;16.61;42.11;102509.47;4971767;28;19914;-53
2023/03/28 09:35:20;;;;;;;;;;;;;;;16.52;40.67;102511.47;4992099;28;19925;-51
2023/03/28 09:37:52;;;;;;;;;;;;;;;16.34;39.41;102498.41;4981637;28;20720;-53
2023/03/28 09:40:21;;;;;;;;;;;;;;;17.48;38.59;102504.63;4979777;28;19914;-53
2023/03/28 09:43:26;;;;;;;;;;;;;;;17.29;38.63;102506.19;4985473;28;19921;-54
2023/03/28 09:46:38;;;;;;;;;;;;;;;16.59;38.03;102506.09;4996423;28;19914;-48
2023/03/28 09:49:23;;;;;;;;;;;;;;;17.68;37.97;102497.63;4981653;28;19936;-51
2023/03/28 09:51:56;;;;;;;;;;;;;;;18.11;38.75;102497.34;4994966;28;19925;-49
2023/03/28 09:54:27;;;;;;;;;;;;;;;17.44;39.24;102494.41;5000044;28;19914;-48
2023/03/28 09:56:57;;;;;;;;;;;;;;;16.91;39.11;102488.47;4986697;28;19941;-52
2023/03/28 10:00:01;;;;;;;;;;;;;;;18.15;37.39;102486.97;4976039;28;19925;-52
2023/03/28 10:02:39;;;;;;;;;;;;;;;18.28;37.51;102486.13;4989656;28;19933;-54
2023/03/28 10:05:28;;;;;;;;;;;;;;;17.95;37.81;102481.47;5006825;28;19921;-50
2023/03/28 10:08:02;;;;;;;;;;;;;;;17.33;38.01;102466.91;4983327;28;19928;-53
2023/03/28 10:10:35;;;;;;;;;;;;;;;17.32;38.04;102476.06;4996420;28;20426;-51
2023/03/28 10:13:08;;;;;;;;;;;;;;;17.64;38.65;102467.44;4979214;28;19945;-53
2023/03/28 10:15:40;;;;;;;;;;;;;;;17.37;37.87;102458.41;4998195;28;19918;-51
2023/03/28 10:18:19;;;;;;;;;;;;;;;17.88;37.44;102457.94;4986529;28;19956;-52
2023/03/28 10:20:52;;;;;;;;;;;;;;;17.69;37.82;102453.28;5021633;28;19927;-54
2023/03/28 10:23:21;;;;;;;;;;;;;;;16.46;38.95;102448.25;5001413;28;19914;-49
2023/03/28 10:25:50;;;;;;;;;;;;;;;16.91;38.56;102441.72;5022733;28;19937;-53
2023/03/28 10:28:30;;;;;;;;;;;;;;;16.67;38.74;102437.59;4981587;28;19914;-54
2023/03/28 10:30:56;;;;;;;;;;;;;;;16.91;39.13;102434.41;4982011;28;19921;-48
2023/03/28 10:33:45;;;;;;;;;;;;;;;16.82;38.71;102442.88;5007935;28;19956;-51
2023/03/28 10:36:41;;;;;;;;;;;;;;;16.66;38.66;102436.78;4991822;28;19929;-50
2023/03/28 10:39:19;;;;;;;;;;;;;;;16.15;39.57;102416.22;5015801;28;19945;-51
2023/03/28 10:42:05;;;;;;;;;;;;;;;16.15;38.63;102427.03;4994060;28;19946;-51
2023/03/28 10:45:06;;;;;;;;;;;;;;;15.86;39.99;102420.72;5005447;28;19969;-50
2023/03/28 10:47:35;;;;;;;;;;;;;;;15.84;40.98;102412.78;5013226;28;19906;-49
2023/03/28 10:50:05;;;;;;;;;;;;;;;16.73;40.35;102417.91;5007730;28;19944;-52
2023/03/28 10:52:48;;;;;;;;;;;;;;;17.19;40.17;102405.69;4979157;28;19926;-51
2023/03/28 10:55:25;;;;;;;;;;;;;;;17.14;39.54;102406.28;4982367;28;19914;-53
2023/03/28 10:58:19;;;;;;;;;;;;;;;16.82;39.75;102405.91;4986696;28;19921;-52
2023/03/28 11:00:59;;;;;;;;;;;;;;;18.38;38.11;102416.13;4989790;28;19918;-51
2023/03/28 11:03:44;;;;;;;;;;;;;;;18.02;37.60;102411.97;4999276;28;19921;-53
2023/03/28 11:06:20;;;;;;;;;;;;;;;18.56;37.46;102399.22;4991282;28;19921;-53
2023/03/28 11:08:51;;;;;;;;;;;;;;;17.97;37.00;102392.78;4996871;28;19946;-51
2023/03/28 11:11:35;;;;;;;;;;;;;;;19.57;35.96;102392.63;4995898;28;19924;-51
2023/03/28 11:14:20;;;;;;;;;;;;;;;19.18;35.78;102393.44;4986912;28;19914;-49
2023/03/28 11:17:16;;;;;;;;;;;;;;;20.21;33.45;102411.63;4976079;28;19914;-52
2023/03/28 11:20:07;;;;;;;;;;;;;;;20.75;34.65;102386.63;4989564;28;19915;-52
2023/03/28 11:22:46;;;;;;;;;;;;;;;20.81;33.10;102388.44;4972624;28;19948;-51
2023/03/28 11:25:36;;;;;;;;;;;;;;;21.43;33.11;102378.47;4984941;28;19914;-51
2023/03/28 11:28:35;;;;;;;;;;;;;;;19.68;35.78;102358.53;4989518;28;19929;-50
2023/03/28 11:31:25;;;;;;;;;;;;;;;19.99;34.95;102344.13;4996166;28;19941;-52
2023/03/28 11:34:10;;;;;;;;;;;;;;;21.63;33.93;102353.69;4988132;28;20157;-52
2023/03/28 11:36:41;;;;;;;;;;;;;;;20.46;34.84;102353.69;5020965;28;19918;-52
2023/03/28 11:39:27;;;;;;;;;;;;;;;21.52;33.92;102360.75;5034277;28;20312;-51
2023/03/28 11:41:55;;;;;;;;;;;;;;;21.73;33.60;102355.88;5053027;28;19917;-51
2023/03/28 11:44:40;;;;;;;;;;;;;;;21.50;33.56;102357.44;5051168;28;19913;-49
2023/03/28 11:47:21;;;;;;;;;;;;;;;21.05;33.05;102345.06;5054509;28;19917;-53
2023/03/28 11:50:00;;;;;;;;;;;;;;;19.86;33.22;102328.75;5057055;28;20269;-48
2023/03/28 11:52:48;;;;;;;;;;;;;;;18.93;33.78;102330.97;5058028;28;19939;-57
2023/03/28 11:55:17;;;;;;;;;;;;;;;19.59;33.73;102318.06;5055297;28;19919;-49
2023/03/28 11:57:53;;;;;;;;;;;;;;;19.32;33.52;102312.03;5052006;28;19984;-51
2023/03/28 12:00:32;;;;;;;;;;;;;;;18.87;33.48;102315.56;5061961;28;19919;-52
2023/03/28 12:03:02;;;;;;;;;;;;;;;19.99;32.85;102318.84;5054900;28;19973;-54
2023/03/28 12:05:31;;;;;;;;;;;;;;;19.94;33.41;102305.09;5052651;28;19989;-54
2023/03/28 12:08:14;;;;;;;;;;;;;;;19.60;33.78;102313.50;5054980;28;19947;-54
2023/03/28 12:10:44;;;;;;;;;;;;;;;18.92;33.62;102289.47;5049441;28;19920;-51
2023/03/28 12:13:42;;;;;;;;;;;;;;;19.42;32.98;102277.09;5060334;28;19912;-49
2023/03/28 12:16:14;;;;;;;;;;;;;;;18.62;33.42;102279.19;5042959;28;19947;-53
2023/03/28 12:18:45;;;;;;;;;;;;;;;18.63;34.08;102270.00;5052523;28;19909;-52
2023/03/28 12:21:31;;;;;;;;;;;;;;;18.16;33.65;102267.44;5053124;28;19925;-51
2023/03/28 12:24:02;;;;;;;;;;;;;;;18.64;34.05;102268.13;5050153;28;20339;-51
2023/03/28 12:26:51;;;;;;;;;;;;;;;18.96;32.82;102254.63;5072996;28;20356;-51
2023/03/28 12:29:26;;;;;;;;;;;;;;;19.02;33.50;102258.38;5055100;28;19924;-53
2023/03/28 12:31:57;;;;;;;;;;;;;;;19.13;33.70;102238.72;5055440;28;19913;-52
2023/03/28 12:34:34;;;;;;;;;;;;;;;18.94;33.25;102250.47;5056044;28;19924;-51
2023/03/28 12:37:27;;;;;;;;;;;;;;;18.65;33.35;102242.69;5055033;28;20411;-51
2023/03/28 12:40:11;;;;;;;;;;;;;;;19.28;32.86;102241.09;4980590;28;20354;-51
2023/03/28 12:42:40;;;;;;;;;;;;;;;18.56;33.35;102233.16;4985009;28;19926;-51
2023/03/28 12:45:08;;;;;;;;;;;;;;;18.88;33.36;102230.47;4976724;28;19933;-54
2023/03/28 12:47:38;;;;;;;;;;;;;;;18.46;33.84;102245.28;5013258;28;19918;-52
2023/03/28 12:50:13;;;;;;;;;;;;;;;18.59;33.88;102244.41;4988955;28;19964;-49
2023/03/28 12:52:42;;;;;;;;;;;;;;;18.47;34.46;102236.13;4999060;28;19953;-50
2023/03/28 12:55:25;;;;;;;;;;;;;;;17.32;35.21;102230.00;4992771;28;19953;-52
2023/03/28 12:58:09;;;;;;;;;;;;;;;17.73;35.19;102230.00;4996625;28;19985;-50
2023/03/28 13:01:03;;;;;;;;;;;;;;;17.80;34.87;102227.28;4988571;28;19922;-51
2023/03/28 13:03:53;;;;;;;;;;;;;;;18.10;35.37;102224.97;4991364;28;19914;-50
2023/03/28 13:06:38;;;;;;;;;;;;;;;19.12;34.62;102225.34;4982830;28;19914;-51
2023/03/28 13:09:16;;;;;;;;;;;;;;;18.10;34.68;102238.50;4989675;28;19918;-53
2023/03/28 13:11:48;;;;;;;;;;;;;;;17.97;35.49;102219.56;4987126;28;19914;-51